Airfield :
LOGIN :

Register | Disclaimer

   EN    FR    IT 

 










Legend :    VFR   Marginal VFR   IFR   Intensive IFR   Very Intensive IFR
Visi :
Ceiling :
>= 8 km
>= 3000ft
5 to 8 km
1000 to 3000 ft
1500m to 5 km
500 to 1000 ft
800 to 1500m
200 to 500 ft
< 800m
< 200 ft
Symbols :   Thunderstorms  Fog  Heavy snow  Heavy precipitations  Wind > 20 kt
SIGMETs :     Misc.  Thunderstorms  Icing  Turbulence  Mountain Waves  Volcanic Ashes







- Airport Elevation : 308 ft
- IATA code : POZ


EPPO - Poznan-Lawica

CURRENT METAR :
  • 190200Z 34003KT 0300 R28/0900 FG VV002 11/11 Q1022

EXPIRED METARs :
  • 190130Z 35005KT 0250 R28/0800 FG BKN001 11/11 Q1022
  • 190100Z 35005KT 0250 R28/0800 FG BKN001 11/11 Q1022
  • 190030Z 34008KT 0400 R28/1400 FG BKN001 11/11 Q1022
  • 190000Z 32005KT 1500 BR BKN002 10/10 Q1022
  • 182330Z 32004KT 2500 BR NSC 10/10 Q1022

TAF TAF EPPO
Valid from the 19 at 00:00 until the 20 at 00:00 UTC


182330Z 1900/1924 34004KT 4000 BR BKN005
TEMPO 1900/1909 1300 DZ BR OVC003
PROB30
TEMPO 1900/1908 0500 FG OVC001
BECMG 1910/1913 6000 SCT020
BECMG 1916/1919 3000 BR
PROB40
TEMPO 1919/1924 0700 FG BKN003
No reported NOTAMs for that airfield.



MET'MAP, your aeronautical weather chart ! - Copyright ORBIFLY December 2007 - Disclaimer

ORBIFLY MET'MAP TEAM :

Programming & Development : Alexandra Zaïnal
Concept & Development : Baudouin d'Aumeries
Co-Development & Prog : Marc-Olivier Méhu
Technical & hardware support : Manuel Goepfert

Contact : metmap@orbifly.com




SOURCES & CREDITS :

   NOAA